Humidity-temperature Sensor

Selected Measurement Type: Relative Humidity

 
Relative Humidity [%]     6 entries per hour
Showing data from 10/18/2022 (00:00:00 Z) to 10/17/2022 (00:01:00 Z)
Previous Next [ Day | 3-Days | 7-Days ]
First Last
Prev [ Day | 3-Days | 7-Days ] Next
First Last

Start Time:     :
End Time:     :     
Time (in GMT) :00 :50 :40 :30 :20 :10
Previous Next [ Day | 3-Days | 7-Days ]
First Last
Prev [ Day | 3-Days | 7-Days ] Next
First Last


123 => good data
MM => data is determined as missing
-- => data not received/configured
Back to Top Back to Top
10/18/2022 00:00 to 23:10 85.07 85.67 85.65 87.28 84.38 81.91
10/17/2022 23:00 to 22:10 84.27 87.42 88.09 90.89 90.31 88.53
10/17/2022 22:00 to 21:10 87.95 92.10 94.71 92.31 88.49 84.59
10/17/2022 21:00 to 20:10 85.15 85.42 86.97 87.95 84.94 86.82
10/17/2022 20:00 to 19:10 86.97 88.09 84.75 85.40 84.08 83.46
10/17/2022 19:00 to 18:10 84.88 84.63 83.23 81.96 82.25 82.54
10/17/2022 18:00 to 17:10 82.60 81.31 82.18 81.68 81.29 80.56
10/17/2022 17:00 to 16:10 79.55 84.00 85.21 85.69 88.36 89.24
10/17/2022 16:00 to 15:10 89.68 90.05 91.56 94.65 91.91 91.87
10/17/2022 15:00 to 14:10 90.22 89.76 93.14 80.08 82.56 86.86
10/17/2022 14:00 to 13:10 86.23 80.83 77.99 78.78 76.61 79.20
10/17/2022 13:00 to 12:10 79.64 79.37 78.39 79.66 78.93 78.09
10/17/2022 12:00 to 11:10 78.28 78.76 86.40 86.63 86.84 87.80
10/17/2022 11:00 to 10:10 87.80 87.32 86.59 86.15 87.03 87.26
10/17/2022 10:00 to 9:10 86.94 86.32 86.09 84.48 85.04 83.88
10/17/2022 09:00 to 8:10 84.46 83.40 82.46 83.96 84.34 83.79
10/17/2022 08:00 to 7:10 83.25 82.33 81.08 83.92 83.94 83.31
10/17/2022 07:00 to 6:10 85.63 78.80 88.24 93.60 84.23 83.35
10/17/2022 06:00 to 5:10 86.34 89.97 89.68 88.43 87.45 91.47
10/17/2022 05:00 to 4:10 92.27 95.00 92.39 84.04 83.29 82.66
10/17/2022 04:00 to 3:10 82.27 79.78 80.74 80.16 80.83 81.20
10/17/2022 03:00 to 2:10 82.04 80.77 79.87 82.23 81.68 83.71
10/17/2022 02:00 to 1:10 84.08 84.06 83.42 85.78 87.78 85.82
10/17/2022 01:00 to 0:10 86.82 85.61 88.47 84.69 88.57 86.76